Aviation Digital Data Service (ADDS)

Output produced by METARs form (0944 UTC 25 February 2018)
found at http://aviationweather.gov/adds/metars/
 
KPGV 250530Z 2506/2606 20007KT P6SM SCT200 
     FM251000 20008KT P6SM SCT007 BKN010 
     TEMPO 2510/2512 BKN007 
     FM251400 21012G21KT P6SM SCT040 
     FM252100 24010KT P6SM VCSH BKN050 
     FM252300 24008KT P6SM -SHRA BKN050 AMD LTD TO CLD VIS AND WIND